sensor_id;sensor_type;location;lat;lon;timestamp;P1;durP1;ratioP1;P2;durP2;ratioP2
22476;SDS011;65006;51.698;-0.292;2023-03-14T00:01:50;20.58;;;2.05;;
22476;SDS011;65006;51.698;-0.292;2023-03-14T00:04:16;23.98;;;2.60;;
22476;SDS011;65006;51.698;-0.292;2023-03-14T00:06:42;15.82;;;2.17;;
22476;SDS011;65006;51.698;-0.292;2023-03-14T00:09:08;15.63;;;1.63;;
22476;SDS011;65006;51.698;-0.292;2023-03-14T00:11:34;17.45;;;2.30;;
22476;SDS011;65006;51.698;-0.292;2023-03-14T00:14:00;12.80;;;2.03;;
22476;SDS011;65006;51.698;-0.292;2023-03-14T00:16:27;15.27;;;1.70;;
22476;SDS011;65006;51.698;-0.292;2023-03-14T00:18:53;14.35;;;1.65;;
22476;SDS011;65006;51.698;-0.292;2023-03-14T00:21:19;24.83;;;3.30;;
22476;SDS011;65006;51.698;-0.292;2023-03-14T00:23:45;19.92;;;3.22;;
22476;SDS011;65006;51.698;-0.292;2023-03-14T00:26:12;13.43;;;1.90;;
22476;SDS011;65006;51.698;-0.292;2023-03-14T00:28:39;13.85;;;2.58;;
22476;SDS011;65006;51.698;-0.292;2023-03-14T00:31:06;17.00;;;1.98;;
22476;SDS011;65006;51.698;-0.292;2023-03-14T00:33:33;15.15;;;2.35;;
22476;SDS011;65006;51.698;-0.292;2023-03-14T00:35:59;16.77;;;1.95;;
22476;SDS011;65006;51.698;-0.292;2023-03-14T00:38:26;20.98;;;2.45;;
22476;SDS011;65006;51.698;-0.292;2023-03-14T00:40:53;5.15;;;1.05;;
22476;SDS011;65006;51.698;-0.292;2023-03-14T00:43:19;1.95;;;0.40;;
22476;SDS011;65006;51.698;-0.292;2023-03-14T00:45:52;6.13;;;0.50;;
22476;SDS011;65006;51.698;-0.292;2023-03-14T00:48:19;3.40;;;0.50;;
22476;SDS011;65006;51.698;-0.292;2023-03-14T00:53:11;0.68;;;0.63;;
22476;SDS011;65006;51.698;-0.292;2023-03-14T00:55:38;1.63;;;0.80;;
22476;SDS011;65006;51.698;-0.292;2023-03-14T01:00:30;2.03;;;0.60;;
22476;SDS011;65006;51.698;-0.292;2023-03-14T01:02:56;2.42;;;0.70;;
22476;SDS011;65006;51.698;-0.292;2023-03-14T01:05:22;2.42;;;0.95;;
22476;SDS011;65006;51.698;-0.292;2023-03-14T01:07:48;1.25;;;0.50;;
22476;SDS011;65006;51.698;-0.292;2023-03-14T01:10:15;1.30;;;0.40;;
22476;SDS011;65006;51.698;-0.292;2023-03-14T01:12:41;0.38;;;0.38;;
22476;SDS011;65006;51.698;-0.292;2023-03-14T01:15:07;0.65;;;0.50;;
22476;SDS011;65006;51.698;-0.292;2023-03-14T01:17:33;1.02;;;0.82;;
22476;SDS011;65006;51.698;-0.292;2023-03-14T01:20:00;0.50;;;0.50;;
22476;SDS011;65006;51.698;-0.292;2023-03-14T01:22:26;0.80;;;0.60;;
22476;SDS011;65006;51.698;-0.292;2023-03-14T01:24:52;1.77;;;0.95;;
22476;SDS011;65006;51.698;-0.292;2023-03-14T01:27:18;1.17;;;0.80;;
22476;SDS011;65006;51.698;-0.292;2023-03-14T01:29:44;1.55;;;0.50;;
22476;SDS011;65006;51.698;-0.292;2023-03-14T01:32:12;2.38;;;0.70;;
22476;SDS011;65006;51.698;-0.292;2023-03-14T01:34:38;0.60;;;0.50;;
22476;SDS011;65006;51.698;-0.292;2023-03-14T01:37:04;1.15;;;0.73;;
22476;SDS011;65006;51.698;-0.292;2023-03-14T01:39:32;0.90;;;0.60;;
22476;SDS011;65006;51.698;-0.292;2023-03-14T01:41:59;0.52;;;0.43;;
22476;SDS011;65006;51.698;-0.292;2023-03-14T01:44:25;1.40;;;0.80;;
22476;SDS011;65006;51.698;-0.292;2023-03-14T01:46:51;1.83;;;0.75;;
22476;SDS011;65006;51.698;-0.292;2023-03-14T01:49:28;5.28;;;0.70;;
22476;SDS011;65006;51.698;-0.292;2023-03-14T01:52:00;1.17;;;0.70;;
22476;SDS011;65006;51.698;-0.292;2023-03-14T01:54:32;4.15;;;0.70;;
22476;SDS011;65006;51.698;-0.292;2023-03-14T01:57:42;6.15;;;0.75;;
22476;SDS011;65006;51.698;-0.292;2023-03-14T01:59:51;1.60;;;0.75;;
22476;SDS011;65006;51.698;-0.292;2023-03-14T02:02:18;2.35;;;0.80;;
22476;SDS011;65006;51.698;-0.292;2023-03-14T02:04:45;6.70;;;0.88;;
22476;SDS011;65006;51.698;-0.292;2023-03-14T02:09:44;5.88;;;0.85;;
22476;SDS011;65006;51.698;-0.292;2023-03-14T02:12:10;1.63;;;0.60;;
22476;SDS011;65006;51.698;-0.292;2023-03-14T02:14:37;1.15;;;0.52;;
22476;SDS011;65006;51.698;-0.292;2023-03-14T02:17:04;3.63;;;0.55;;
22476;SDS011;65006;51.698;-0.292;2023-03-14T02:22:10;2.88;;;0.50;;
22476;SDS011;65006;51.698;-0.292;2023-03-14T02:27:16;6.35;;;0.50;;
22476;SDS011;65006;51.698;-0.292;2023-03-14T02:29:45;3.55;;;0.77;;
22476;SDS011;65006;51.698;-0.292;2023-03-14T02:32:13;1.48;;;0.60;;
22476;SDS011;65006;51.698;-0.292;2023-03-14T02:34:40;4.43;;;0.80;;
22476;SDS011;65006;51.698;-0.292;2023-03-14T02:37:08;3.58;;;0.60;;
22476;SDS011;65006;51.698;-0.292;2023-03-14T02:39:38;0.70;;;0.40;;
22476;SDS011;65006;51.698;-0.292;2023-03-14T02:42:05;0.40;;;0.38;;
22476;SDS011;65006;51.698;-0.292;2023-03-14T02:44:31;2.35;;;0.43;;
22476;SDS011;65006;51.698;-0.292;2023-03-14T02:46:57;1.67;;;0.65;;
22476;SDS011;65006;51.698;-0.292;2023-03-14T02:49:23;2.45;;;0.55;;
22476;SDS011;65006;51.698;-0.292;2023-03-14T02:51:50;1.10;;;0.38;;
22476;SDS011;65006;51.698;-0.292;2023-03-14T02:54:16;0.68;;;0.68;;
22476;SDS011;65006;51.698;-0.292;2023-03-14T02:56:44;2.53;;;0.52;;
22476;SDS011;65006;51.698;-0.292;2023-03-14T02:59:10;0.70;;;0.30;;
22476;SDS011;65006;51.698;-0.292;2023-03-14T03:01:36;3.15;;;0.50;;
22476;SDS011;65006;51.698;-0.292;2023-03-14T03:04:02;3.70;;;0.45;;
22476;SDS011;65006;51.698;-0.292;2023-03-14T03:06:28;2.72;;;0.82;;
22476;SDS011;65006;51.698;-0.292;2023-03-14T03:08:54;0.98;;;0.45;;
22476;SDS011;65006;51.698;-0.292;2023-03-14T03:11:20;0.43;;;0.40;;
22476;SDS011;65006;51.698;-0.292;2023-03-14T03:13:46;5.72;;;0.50;;
22476;SDS011;65006;51.698;-0.292;2023-03-14T03:16:12;5.22;;;0.50;;
22476;SDS011;65006;51.698;-0.292;2023-03-14T03:18:39;5.85;;;0.77;;
22476;SDS011;65006;51.698;-0.292;2023-03-14T03:21:06;3.05;;;0.50;;
22476;SDS011;65006;51.698;-0.292;2023-03-14T03:23:33;1.10;;;0.50;;
22476;SDS011;65006;51.698;-0.292;2023-03-14T03:26:00;1.30;;;0.50;;
22476;SDS011;65006;51.698;-0.292;2023-03-14T03:28:27;2.33;;;0.55;;
22476;SDS011;65006;51.698;-0.292;2023-03-14T03:30:53;1.92;;;0.32;;
22476;SDS011;65006;51.698;-0.292;2023-03-14T03:33:19;4.22;;;0.60;;
22476;SDS011;65006;51.698;-0.292;2023-03-14T03:35:48;1.20;;;0.60;;
22476;SDS011;65006;51.698;-0.292;2023-03-14T03:38:14;3.30;;;0.60;;
22476;SDS011;65006;51.698;-0.292;2023-03-14T03:40:42;1.20;;;0.40;;
22476;SDS011;65006;51.698;-0.292;2023-03-14T03:43:08;3.88;;;0.50;;
22476;SDS011;65006;51.698;-0.292;2023-03-14T03:45:35;1.80;;;0.40;;
22476;SDS011;65006;51.698;-0.292;2023-03-14T03:48:01;2.40;;;0.55;;
22476;SDS011;65006;51.698;-0.292;2023-03-14T03:50:27;1.10;;;0.40;;
22476;SDS011;65006;51.698;-0.292;2023-03-14T03:52:53;2.05;;;0.50;;
22476;SDS011;65006;51.698;-0.292;2023-03-14T03:55:19;3.03;;;0.40;;
22476;SDS011;65006;51.698;-0.292;2023-03-14T03:57:45;6.22;;;0.85;;
22476;SDS011;65006;51.698;-0.292;2023-03-14T04:00:11;0.40;;;0.40;;
22476;SDS011;65006;51.698;-0.292;2023-03-14T04:02:37;5.95;;;1.00;;
22476;SDS011;65006;51.698;-0.292;2023-03-14T04:05:04;1.85;;;0.40;;
22476;SDS011;65006;51.698;-0.292;2023-03-14T04:07:33;4.20;;;0.90;;
22476;SDS011;65006;51.698;-0.292;2023-03-14T04:09:59;9.00;;;1.38;;
22476;SDS011;65006;51.698;-0.292;2023-03-14T04:12:25;3.22;;;0.40;;
22476;SDS011;65006;51.698;-0.292;2023-03-14T04:14:51;2.58;;;0.57;;
22476;SDS011;65006;51.698;-0.292;2023-03-14T04:17:17;4.28;;;0.60;;
22476;SDS011;65006;51.698;-0.292;2023-03-14T04:19:43;3.67;;;0.60;;
22476;SDS011;65006;51.698;-0.292;2023-03-14T04:22:09;1.85;;;0.57;;
22476;SDS011;65006;51.698;-0.292;2023-03-14T04:24:35;4.85;;;0.70;;
22476;SDS011;65006;51.698;-0.292;2023-03-14T04:27:01;2.25;;;0.50;;
22476;SDS011;65006;51.698;-0.292;2023-03-14T04:29:27;7.25;;;1.00;;
22476;SDS011;65006;51.698;-0.292;2023-03-14T04:31:53;7.78;;;0.75;;
22476;SDS011;65006;51.698;-0.292;2023-03-14T04:34:19;1.67;;;0.75;;
22476;SDS011;65006;51.698;-0.292;2023-03-14T04:36:45;2.78;;;0.65;;
22476;SDS011;65006;51.698;-0.292;2023-03-14T04:39:11;6.45;;;0.65;;
22476;SDS011;65006;51.698;-0.292;2023-03-14T04:41:37;3.92;;;0.50;;
22476;SDS011;65006;51.698;-0.292;2023-03-14T04:44:03;4.38;;;0.90;;
22476;SDS011;65006;51.698;-0.292;2023-03-14T04:46:29;1.58;;;0.60;;
22476;SDS011;65006;51.698;-0.292;2023-03-14T04:48:55;2.45;;;0.50;;
22476;SDS011;65006;51.698;-0.292;2023-03-14T04:51:22;3.20;;;1.10;;
22476;SDS011;65006;51.698;-0.292;2023-03-14T04:53:50;3.72;;;0.70;;
22476;SDS011;65006;51.698;-0.292;2023-03-14T04:56:16;3.97;;;0.50;;
22476;SDS011;65006;51.698;-0.292;2023-03-14T04:58:42;2.53;;;0.77;;
22476;SDS011;65006;51.698;-0.292;2023-03-14T05:01:09;6.68;;;0.75;;
22476;SDS011;65006;51.698;-0.292;2023-03-14T05:03:35;1.95;;;0.30;;
22476;SDS011;65006;51.698;-0.292;2023-03-14T05:06:03;3.70;;;0.70;;
22476;SDS011;65006;51.698;-0.292;2023-03-14T05:08:33;7.97;;;1.30;;
22476;SDS011;65006;51.698;-0.292;2023-03-14T05:10:59;6.07;;;0.77;;
22476;SDS011;65006;51.698;-0.292;2023-03-14T05:13:25;7.60;;;1.00;;
22476;SDS011;65006;51.698;-0.292;2023-03-14T05:15:51;3.92;;;0.95;;
22476;SDS011;65006;51.698;-0.292;2023-03-14T05:18:17;3.47;;;0.77;;
22476;SDS011;65006;51.698;-0.292;2023-03-14T05:20:43;2.78;;;0.63;;
22476;SDS011;65006;51.698;-0.292;2023-03-14T05:23:09;5.82;;;0.90;;
22476;SDS011;65006;51.698;-0.292;2023-03-14T05:25:36;8.35;;;0.65;;
22476;SDS011;65006;51.698;-0.292;2023-03-14T05:28:02;2.80;;;0.75;;
22476;SDS011;65006;51.698;-0.292;2023-03-14T05:32:55;7.03;;;0.75;;
22476;SDS011;65006;51.698;-0.292;2023-03-14T05:35:22;4.93;;;1.13;;
22476;SDS011;65006;51.698;-0.292;2023-03-14T05:37:48;3.40;;;0.52;;
22476;SDS011;65006;51.698;-0.292;2023-03-14T05:40:14;4.03;;;0.93;;
22476;SDS011;65006;51.698;-0.292;2023-03-14T05:42:40;5.60;;;0.70;;
22476;SDS011;65006;51.698;-0.292;2023-03-14T05:45:06;13.23;;;0.88;;
22476;SDS011;65006;51.698;-0.292;2023-03-14T05:47:32;5.47;;;0.90;;
22476;SDS011;65006;51.698;-0.292;2023-03-14T05:49:58;4.45;;;0.88;;
22476;SDS011;65006;51.698;-0.292;2023-03-14T05:52:24;5.32;;;0.90;;
22476;SDS011;65006;51.698;-0.292;2023-03-14T05:54:50;1.08;;;0.40;;
22476;SDS011;65006;51.698;-0.292;2023-03-14T05:57:16;3.35;;;1.25;;
22476;SDS011;65006;51.698;-0.292;2023-03-14T05:59:42;2.60;;;0.55;;
22476;SDS011;65006;51.698;-0.292;2023-03-14T06:02:08;3.72;;;0.73;;
22476;SDS011;65006;51.698;-0.292;2023-03-14T06:04:34;4.47;;;0.63;;
22476;SDS011;65006;51.698;-0.292;2023-03-14T06:07:00;2.60;;;0.73;;
22476;SDS011;65006;51.698;-0.292;2023-03-14T06:09:27;11.15;;;1.58;;
22476;SDS011;65006;51.698;-0.292;2023-03-14T06:11:53;4.22;;;0.88;;
22476;SDS011;65006;51.698;-0.292;2023-03-14T06:14:19;5.53;;;0.90;;
22476;SDS011;65006;51.698;-0.292;2023-03-14T06:16:45;8.82;;;1.00;;
22476;SDS011;65006;51.698;-0.292;2023-03-14T06:19:13;5.53;;;0.80;;
22476;SDS011;65006;51.698;-0.292;2023-03-14T06:21:40;1.67;;;0.60;;
22476;SDS011;65006;51.698;-0.292;2023-03-14T06:24:06;5.88;;;1.17;;
22476;SDS011;65006;51.698;-0.292;2023-03-14T06:26:32;4.82;;;0.80;;
22476;SDS011;65006;51.698;-0.292;2023-03-14T06:28:58;4.95;;;0.60;;
22476;SDS011;65006;51.698;-0.292;2023-03-14T06:31:28;7.93;;;1.23;;
22476;SDS011;65006;51.698;-0.292;2023-03-14T06:33:54;7.05;;;0.88;;
22476;SDS011;65006;51.698;-0.292;2023-03-14T06:36:20;3.33;;;0.82;;
22476;SDS011;65006;51.698;-0.292;2023-03-14T06:38:46;8.18;;;0.93;;
22476;SDS011;65006;51.698;-0.292;2023-03-14T06:41:12;4.75;;;1.08;;
22476;SDS011;65006;51.698;-0.292;2023-03-14T06:43:38;4.28;;;1.15;;
22476;SDS011;65006;51.698;-0.292;2023-03-14T06:46:04;6.43;;;0.93;;
22476;SDS011;65006;51.698;-0.292;2023-03-14T06:48:30;2.30;;;1.08;;
22476;SDS011;65006;51.698;-0.292;2023-03-14T06:50:56;6.35;;;1.10;;
22476;SDS011;65006;51.698;-0.292;2023-03-14T06:53:22;2.90;;;0.77;;
22476;SDS011;65006;51.698;-0.292;2023-03-14T06:55:48;5.97;;;0.80;;
22476;SDS011;65006;51.698;-0.292;2023-03-14T06:58:14;4.53;;;0.68;;
22476;SDS011;65006;51.698;-0.292;2023-03-14T07:00:40;3.08;;;0.70;;
22476;SDS011;65006;51.698;-0.292;2023-03-14T07:03:07;3.65;;;0.70;;
22476;SDS011;65006;51.698;-0.292;2023-03-14T07:05:33;4.03;;;0.82;;
22476;SDS011;65006;51.698;-0.292;2023-03-14T07:07:59;1.05;;;0.60;;
22476;SDS011;65006;51.698;-0.292;2023-03-14T07:10:25;5.55;;;0.90;;
22476;SDS011;65006;51.698;-0.292;2023-03-14T07:12:51;8.38;;;1.20;;
22476;SDS011;65006;51.698;-0.292;2023-03-14T07:15:18;3.33;;;0.77;;
22476;SDS011;65006;51.698;-0.292;2023-03-14T07:17:44;1.92;;;1.00;;
22476;SDS011;65006;51.698;-0.292;2023-03-14T07:20:12;6.57;;;1.25;;
22476;SDS011;65006;51.698;-0.292;2023-03-14T07:22:39;3.42;;;0.70;;
22476;SDS011;65006;51.698;-0.292;2023-03-14T07:25:05;2.17;;;0.57;;
22476;SDS011;65006;51.698;-0.292;2023-03-14T07:27:31;4.65;;;0.80;;
22476;SDS011;65006;51.698;-0.292;2023-03-14T07:29:57;7.60;;;0.80;;
22476;SDS011;65006;51.698;-0.292;2023-03-14T07:32:23;2.63;;;0.60;;
22476;SDS011;65006;51.698;-0.292;2023-03-14T07:34:49;1.80;;;0.70;;
22476;SDS011;65006;51.698;-0.292;2023-03-14T07:37:15;1.17;;;0.57;;
22476;SDS011;65006;51.698;-0.292;2023-03-14T07:39:41;2.47;;;0.77;;
22476;SDS011;65006;51.698;-0.292;2023-03-14T07:42:07;1.13;;;0.70;;
22476;SDS011;65006;51.698;-0.292;2023-03-14T07:44:33;3.10;;;0.70;;
22476;SDS011;65006;51.698;-0.292;2023-03-14T07:47:00;1.15;;;0.73;;
22476;SDS011;65006;51.698;-0.292;2023-03-14T07:49:26;2.90;;;0.65;;
22476;SDS011;65006;51.698;-0.292;2023-03-14T07:51:52;0.50;;;0.50;;
22476;SDS011;65006;51.698;-0.292;2023-03-14T07:54:18;0.63;;;0.55;;
22476;SDS011;65006;51.698;-0.292;2023-03-14T07:56:45;0.68;;;0.50;;
22476;SDS011;65006;51.698;-0.292;2023-03-14T08:01:41;4.20;;;0.63;;
22476;SDS011;65006;51.698;-0.292;2023-03-14T08:04:07;0.50;;;0.50;;
22476;SDS011;65006;51.698;-0.292;2023-03-14T08:06:34;3.65;;;0.68;;
22476;SDS011;65006;51.698;-0.292;2023-03-14T08:09:01;1.33;;;0.80;;
22476;SDS011;65006;51.698;-0.292;2023-03-14T08:11:27;2.80;;;0.70;;
22476;SDS011;65006;51.698;-0.292;2023-03-14T08:13:53;2.50;;;0.65;;
22476;SDS011;65006;51.698;-0.292;2023-03-14T08:16:19;1.00;;;0.63;;
22476;SDS011;65006;51.698;-0.292;2023-03-14T08:18:45;0.50;;;0.50;;
22476;SDS011;65006;51.698;-0.292;2023-03-14T08:21:11;0.77;;;0.60;;
22476;SDS011;65006;51.698;-0.292;2023-03-14T08:23:37;0.50;;;0.43;;
22476;SDS011;65006;51.698;-0.292;2023-03-14T08:26:03;0.68;;;0.20;;
22476;SDS011;65006;51.698;-0.292;2023-03-14T08:28:29;1.02;;;0.40;;
22476;SDS011;65006;51.698;-0.292;2023-03-14T08:30:58;0.30;;;0.30;;
22476;SDS011;65006;51.698;-0.292;2023-03-14T08:33:24;0.45;;;0.30;;
22476;SDS011;65006;51.698;-0.292;2023-03-14T08:35:57;0.30;;;0.30;;
22476;SDS011;65006;51.698;-0.292;2023-03-14T08:38:23;1.20;;;0.60;;
22476;SDS011;65006;51.698;-0.292;2023-03-14T08:40:57;1.60;;;0.50;;
22476;SDS011;65006;51.698;-0.292;2023-03-14T08:43:24;2.13;;;0.50;;
22476;SDS011;65006;51.698;-0.292;2023-03-14T08:45:50;1.17;;;0.50;;
22476;SDS011;65006;51.698;-0.292;2023-03-14T08:48:16;4.25;;;2.17;;
22476;SDS011;65006;51.698;-0.292;2023-03-14T08:50:44;6.00;;;3.38;;
22476;SDS011;65006;51.698;-0.292;2023-03-14T08:53:10;24.20;;;11.15;;
22476;SDS011;65006;51.698;-0.292;2023-03-14T08:55:36;19.38;;;9.63;;
22476;SDS011;65006;51.698;-0.292;2023-03-14T08:58:02;13.95;;;4.72;;
22476;SDS011;65006;51.698;-0.292;2023-03-14T09:00:28;11.25;;;3.65;;
22476;SDS011;65006;51.698;-0.292;2023-03-14T09:02:54;5.63;;;1.08;;
22476;SDS011;65006;51.698;-0.292;2023-03-14T09:05:20;5.70;;;1.02;;
22476;SDS011;65006;51.698;-0.292;2023-03-14T09:07:46;5.93;;;1.00;;
22476;SDS011;65006;51.698;-0.292;2023-03-14T09:10:12;6.88;;;1.48;;
22476;SDS011;65006;51.698;-0.292;2023-03-14T09:12:38;7.00;;;1.83;;
22476;SDS011;65006;51.698;-0.292;2023-03-14T09:15:04;8.55;;;1.85;;
22476;SDS011;65006;51.698;-0.292;2023-03-14T09:17:30;6.72;;;1.40;;
22476;SDS011;65006;51.698;-0.292;2023-03-14T09:19:56;6.53;;;0.85;;
22476;SDS011;65006;51.698;-0.292;2023-03-14T09:22:24;4.40;;;0.85;;
22476;SDS011;65006;51.698;-0.292;2023-03-14T09:24:51;3.50;;;0.85;;
22476;SDS011;65006;51.698;-0.292;2023-03-14T09:27:17;4.88;;;1.35;;
22476;SDS011;65006;51.698;-0.292;2023-03-14T09:29:43;8.35;;;0.90;;
22476;SDS011;65006;51.698;-0.292;2023-03-14T09:32:09;5.03;;;1.30;;
22476;SDS011;65006;51.698;-0.292;2023-03-14T09:34:35;7.43;;;1.35;;
22476;SDS011;65006;51.698;-0.292;2023-03-14T09:37:01;2.17;;;1.10;;
22476;SDS011;65006;51.698;-0.292;2023-03-14T09:39:27;2.15;;;0.90;;
22476;SDS011;65006;51.698;-0.292;2023-03-14T09:41:53;4.43;;;1.20;;
22476;SDS011;65006;51.698;-0.292;2023-03-14T09:44:22;9.93;;;1.20;;
22476;SDS011;65006;51.698;-0.292;2023-03-14T09:46:50;4.55;;;1.90;;
22476;SDS011;65006;51.698;-0.292;2023-03-14T09:49:25;5.18;;;1.70;;
22476;SDS011;65006;51.698;-0.292;2023-03-14T09:51:54;5.95;;;1.23;;
22476;SDS011;65006;51.698;-0.292;2023-03-14T09:54:42;5.68;;;1.48;;
22476;SDS011;65006;51.698;-0.292;2023-03-14T09:57:11;8.55;;;1.30;;
22476;SDS011;65006;51.698;-0.292;2023-03-14T09:59:38;4.78;;;1.15;;
22476;SDS011;65006;51.698;-0.292;2023-03-14T10:02:11;3.67;;;0.93;;
22476;SDS011;65006;51.698;-0.292;2023-03-14T10:04:38;13.63;;;1.17;;
22476;SDS011;65006;51.698;-0.292;2023-03-14T10:07:11;9.88;;;1.10;;
22476;SDS011;65006;51.698;-0.292;2023-03-14T10:09:40;4.47;;;1.25;;
22476;SDS011;65006;51.698;-0.292;2023-03-14T10:12:07;9.82;;;1.20;;
22476;SDS011;65006;51.698;-0.292;2023-03-14T10:14:36;8.15;;;1.02;;
22476;SDS011;65006;51.698;-0.292;2023-03-14T10:17:09;9.45;;;1.23;;
22476;SDS011;65006;51.698;-0.292;2023-03-14T10:19:35;3.53;;;0.90;;
22476;SDS011;65006;51.698;-0.292;2023-03-14T10:22:03;5.88;;;1.05;;
22476;SDS011;65006;51.698;-0.292;2023-03-14T10:24:31;3.85;;;1.10;;
22476;SDS011;65006;51.698;-0.292;2023-03-14T10:26:58;8.38;;;1.33;;
22476;SDS011;65006;51.698;-0.292;2023-03-14T10:29:27;3.95;;;0.88;;
22476;SDS011;65006;51.698;-0.292;2023-03-14T10:31:54;10.18;;;1.13;;
22476;SDS011;65006;51.698;-0.292;2023-03-14T10:34:23;2.67;;;1.27;;
22476;SDS011;65006;51.698;-0.292;2023-03-14T10:36:53;7.68;;;1.10;;
22476;SDS011;65006;51.698;-0.292;2023-03-14T10:41:49;6.60;;;1.40;;
22476;SDS011;65006;51.698;-0.292;2023-03-14T10:44:16;10.82;;;1.85;;
22476;SDS011;65006;51.698;-0.292;2023-03-14T10:46:45;5.78;;;1.30;;
22476;SDS011;65006;51.698;-0.292;2023-03-14T10:49:22;5.95;;;1.30;;
22476;SDS011;65006;51.698;-0.292;2023-03-14T10:51:51;6.70;;;1.63;;
22476;SDS011;65006;51.698;-0.292;2023-03-14T10:54:20;7.63;;;1.08;;
22476;SDS011;65006;51.698;-0.292;2023-03-14T10:56:55;11.18;;;1.65;;
22476;SDS011;65006;51.698;-0.292;2023-03-14T10:59:21;5.72;;;1.27;;
22476;SDS011;65006;51.698;-0.292;2023-03-14T11:01:51;5.80;;;1.60;;
22476;SDS011;65006;51.698;-0.292;2023-03-14T11:09:29;5.88;;;1.25;;
22476;SDS011;65006;51.698;-0.292;2023-03-14T11:16:56;5.65;;;1.15;;
22476;SDS011;65006;51.698;-0.292;2023-03-14T11:19:38;11.20;;;1.52;;
22476;SDS011;65006;51.698;-0.292;2023-03-14T11:24:54;5.78;;;0.77;;
22476;SDS011;65006;51.698;-0.292;2023-03-14T11:27:34;4.68;;;1.13;;
22476;SDS011;65006;51.698;-0.292;2023-03-14T11:30:12;7.07;;;0.90;;
22476;SDS011;65006;51.698;-0.292;2023-03-14T11:35:24;6.05;;;1.48;;
22476;SDS011;65006;51.698;-0.292;2023-03-14T11:37:53;4.68;;;1.30;;
22476;SDS011;65006;51.698;-0.292;2023-03-14T11:40:23;6.10;;;0.82;;
22476;SDS011;65006;51.698;-0.292;2023-03-14T11:42:54;6.03;;;1.13;;
22476;SDS011;65006;51.698;-0.292;2023-03-14T11:45:27;7.18;;;1.63;;
22476;SDS011;65006;51.698;-0.292;2023-03-14T11:50:40;2.42;;;0.82;;
22476;SDS011;65006;51.698;-0.292;2023-03-14T11:53:18;7.47;;;1.27;;
22476;SDS011;65006;51.698;-0.292;2023-03-14T11:55:45;5.65;;;1.00;;
22476;SDS011;65006;51.698;-0.292;2023-03-14T11:58:23;6.10;;;0.77;;
22476;SDS011;65006;51.698;-0.292;2023-03-14T12:00:51;6.70;;;0.80;;
22476;SDS011;65006;51.698;-0.292;2023-03-14T12:08:37;4.38;;;0.80;;
22476;SDS011;65006;51.698;-0.292;2023-03-14T12:11:12;7.47;;;0.82;;
22476;SDS011;65006;51.698;-0.292;2023-03-14T12:13:39;6.93;;;1.45;;
22476;SDS011;65006;51.698;-0.292;2023-03-14T12:18:50;8.02;;;1.00;;
22476;SDS011;65006;51.698;-0.292;2023-03-14T12:21:17;5.68;;;0.88;;
22476;SDS011;65006;51.698;-0.292;2023-03-14T12:23:50;4.03;;;0.80;;
22476;SDS011;65006;51.698;-0.292;2023-03-14T12:26:20;7.68;;;0.85;;
22476;SDS011;65006;51.698;-0.292;2023-03-14T12:34:01;4.45;;;0.85;;
22476;SDS011;65006;51.698;-0.292;2023-03-14T12:41:44;5.50;;;0.55;;
22476;SDS011;65006;51.698;-0.292;2023-03-14T12:46:53;9.90;;;0.98;;
22476;SDS011;65006;51.698;-0.292;2023-03-14T12:49:19;4.15;;;0.60;;
22476;SDS011;65006;51.698;-0.292;2023-03-14T12:51:47;6.07;;;1.05;;
22476;SDS011;65006;51.698;-0.292;2023-03-14T12:59:21;3.80;;;0.65;;
22476;SDS011;65006;51.698;-0.292;2023-03-14T13:01:55;6.60;;;0.90;;
22476;SDS011;65006;51.698;-0.292;2023-03-14T13:04:28;3.13;;;0.93;;
22476;SDS011;65006;51.698;-0.292;2023-03-14T13:06:57;4.15;;;0.77;;
22476;SDS011;65006;51.698;-0.292;2023-03-14T13:12:13;3.25;;;0.93;;
22476;SDS011;65006;51.698;-0.292;2023-03-14T13:14:44;3.70;;;0.43;;
22476;SDS011;65006;51.698;-0.292;2023-03-14T13:17:11;1.88;;;0.50;;
22476;SDS011;65006;51.698;-0.292;2023-03-14T13:19:38;1.83;;;0.70;;
22476;SDS011;65006;51.698;-0.292;2023-03-14T13:22:05;7.13;;;1.10;;
22476;SDS011;65006;51.698;-0.292;2023-03-14T13:24:35;5.95;;;0.75;;
22476;SDS011;65006;51.698;-0.292;2023-03-14T13:27:01;5.68;;;0.80;;
22476;SDS011;65006;51.698;-0.292;2023-03-14T13:29:28;2.33;;;0.50;;
22476;SDS011;65006;51.698;-0.292;2023-03-14T13:31:56;1.75;;;0.70;;
22476;SDS011;65006;51.698;-0.292;2023-03-14T13:34:33;7.38;;;1.02;;
22476;SDS011;65006;51.698;-0.292;2023-03-14T13:37:00;4.28;;;0.80;;
22476;SDS011;65006;51.698;-0.292;2023-03-14T13:39:26;4.82;;;0.60;;
22476;SDS011;65006;51.698;-0.292;2023-03-14T13:41:54;5.32;;;0.60;;
22476;SDS011;65006;51.698;-0.292;2023-03-14T13:44:27;2.53;;;0.50;;
22476;SDS011;65006;51.698;-0.292;2023-03-14T13:46:59;6.88;;;0.68;;
22476;SDS011;65006;51.698;-0.292;2023-03-14T13:49:26;2.17;;;0.70;;
22476;SDS011;65006;51.698;-0.292;2023-03-14T13:51:54;6.75;;;1.33;;
22476;SDS011;65006;51.698;-0.292;2023-03-14T13:54:21;2.80;;;0.90;;
22476;SDS011;65006;51.698;-0.292;2023-03-14T13:56:48;2.33;;;0.60;;
22476;SDS011;65006;51.698;-0.292;2023-03-14T13:59:21;5.55;;;1.05;;
22476;SDS011;65006;51.698;-0.292;2023-03-14T14:01:47;5.28;;;0.55;;
22476;SDS011;65006;51.698;-0.292;2023-03-14T14:04:18;4.13;;;0.45;;
22476;SDS011;65006;51.698;-0.292;2023-03-14T14:06:47;2.78;;;0.77;;
22476;SDS011;65006;51.698;-0.292;2023-03-14T14:09:16;3.17;;;1.05;;
22476;SDS011;65006;51.698;-0.292;2023-03-14T14:11:46;6.97;;;1.05;;
22476;SDS011;65006;51.698;-0.292;2023-03-14T14:14:56;3.50;;;0.63;;
22476;SDS011;65006;51.698;-0.292;2023-03-14T14:17:03;3.95;;;0.77;;
22476;SDS011;65006;51.698;-0.292;2023-03-14T14:19:30;2.63;;;0.60;;
22476;SDS011;65006;51.698;-0.292;2023-03-14T14:21:58;6.65;;;0.90;;
22476;SDS011;65006;51.698;-0.292;2023-03-14T14:24:24;6.15;;;0.70;;
22476;SDS011;65006;51.698;-0.292;2023-03-14T14:26:54;4.35;;;1.33;;
22476;SDS011;65006;51.698;-0.292;2023-03-14T14:29:30;1.38;;;0.50;;
22476;SDS011;65006;51.698;-0.292;2023-03-14T14:32:02;2.70;;;0.80;;
22476;SDS011;65006;51.698;-0.292;2023-03-14T14:34:28;3.15;;;0.77;;
22476;SDS011;65006;51.698;-0.292;2023-03-14T14:36:54;3.85;;;1.00;;
22476;SDS011;65006;51.698;-0.292;2023-03-14T14:39:21;3.65;;;0.60;;
22476;SDS011;65006;51.698;-0.292;2023-03-14T14:41:49;2.38;;;0.60;;
22476;SDS011;65006;51.698;-0.292;2023-03-14T14:44:28;4.03;;;1.17;;
22476;SDS011;65006;51.698;-0.292;2023-03-14T14:46:56;5.20;;;0.80;;
22476;SDS011;65006;51.698;-0.292;2023-03-14T14:49:28;4.22;;;1.30;;
22476;SDS011;65006;51.698;-0.292;2023-03-14T14:51:59;3.10;;;0.90;;
22476;SDS011;65006;51.698;-0.292;2023-03-14T14:54:38;2.75;;;0.93;;
22476;SDS011;65006;51.698;-0.292;2023-03-14T14:57:17;10.13;;;0.95;;
22476;SDS011;65006;51.698;-0.292;2023-03-14T14:59:43;4.80;;;0.95;;
22476;SDS011;65006;51.698;-0.292;2023-03-14T15:02:16;2.58;;;0.73;;
22476;SDS011;65006;51.698;-0.292;2023-03-14T15:04:50;3.03;;;0.80;;
22476;SDS011;65006;51.698;-0.292;2023-03-14T15:07:16;4.72;;;0.60;;
22476;SDS011;65006;51.698;-0.292;2023-03-14T15:09:42;3.15;;;0.60;;
22476;SDS011;65006;51.698;-0.292;2023-03-14T15:12:08;2.20;;;0.65;;
22476;SDS011;65006;51.698;-0.292;2023-03-14T15:14:34;3.75;;;0.80;;
22476;SDS011;65006;51.698;-0.292;2023-03-14T15:17:00;1.80;;;0.60;;
22476;SDS011;65006;51.698;-0.292;2023-03-14T15:19:26;4.78;;;0.93;;
22476;SDS011;65006;51.698;-0.292;2023-03-14T15:21:55;3.85;;;0.95;;
22476;SDS011;65006;51.698;-0.292;2023-03-14T15:24:21;7.53;;;1.10;;
22476;SDS011;65006;51.698;-0.292;2023-03-14T15:26:47;4.45;;;1.13;;
22476;SDS011;65006;51.698;-0.292;2023-03-14T15:29:13;1.05;;;0.60;;
22476;SDS011;65006;51.698;-0.292;2023-03-14T15:31:40;2.72;;;1.45;;
22476;SDS011;65006;51.698;-0.292;2023-03-14T15:34:08;2.83;;;0.75;;
22476;SDS011;65006;51.698;-0.292;2023-03-14T15:36:34;3.10;;;0.85;;
22476;SDS011;65006;51.698;-0.292;2023-03-14T15:39:01;5.43;;;0.80;;
22476;SDS011;65006;51.698;-0.292;2023-03-14T15:43:53;4.70;;;0.70;;
22476;SDS011;65006;51.698;-0.292;2023-03-14T15:46:19;3.03;;;0.95;;